createdAt,value
2022-12-31T00:00:34.653Z,22.73
2022-12-31T00:03:03.102Z,19.83
2022-12-31T00:05:34.510Z,18.00
2022-12-31T00:08:02.993Z,24.60
2022-12-31T00:10:30.828Z,26.50
2022-12-31T00:12:58.412Z,16.25
2022-12-31T00:15:25.937Z,19.05
2022-12-31T00:17:53.517Z,16.17
2022-12-31T00:20:21.022Z,22.98
2022-12-31T00:22:48.562Z,24.00
2022-12-31T00:25:16.126Z,20.65
2022-12-31T00:27:43.694Z,20.65
2022-12-31T00:30:12.092Z,20.85
2022-12-31T00:32:39.856Z,12.52
2022-12-31T00:35:07.816Z,18.08
2022-12-31T00:37:35.640Z,16.80
2022-12-31T00:40:03.436Z,22.27
2022-12-31T00:42:31.077Z,16.27
2022-12-31T00:44:58.590Z,17.90
2022-12-31T00:47:26.442Z,14.18
2022-12-31T00:49:54.106Z,19.70
2022-12-31T00:52:21.964Z,16.65
2022-12-31T00:54:49.446Z,17.85
2022-12-31T00:57:24.396Z,20.13
2022-12-31T00:59:51.993Z,13.85
2022-12-31T01:02:19.657Z,24.70
2022-12-31T01:04:47.446Z,19.83
2022-12-31T01:07:14.929Z,14.50
2022-12-31T01:09:42.640Z,22.85
2022-12-31T01:12:10.127Z,23.80
2022-12-31T01:14:37.681Z,18.20
2022-12-31T01:17:05.189Z,21.27
2022-12-31T01:19:32.832Z,28.00
2022-12-31T01:22:00.317Z,17.45
2022-12-31T01:24:27.814Z,19.23
2022-12-31T01:26:57.816Z,19.35
2022-12-31T01:29:26.961Z,23.35
2022-12-31T01:31:54.684Z,20.60
2022-12-31T01:34:22.456Z,26.95
2022-12-31T01:36:49.950Z,15.75
2022-12-31T01:39:17.536Z,20.55
2022-12-31T01:41:47.521Z,22.25
2022-12-31T01:44:23.865Z,18.35
2022-12-31T01:47:04.164Z,26.10
2022-12-31T01:49:59.318Z,18.92
2022-12-31T01:52:55.486Z,25.85
2022-12-31T01:55:45.957Z,16.17
2022-12-31T01:58:27.600Z,22.42
2022-12-31T02:01:00.300Z,20.25
2022-12-31T02:03:29.767Z,19.52
2022-12-31T02:06:14.945Z,13.05
2022-12-31T02:08:43.755Z,18.23
2022-12-31T02:11:38.314Z,18.77
2022-12-31T02:14:11.882Z,18.15
2022-12-31T02:16:40.134Z,14.63
2022-12-31T02:19:29.276Z,14.43
2022-12-31T02:21:59.911Z,18.08
2022-12-31T02:25:18.816Z,14.13
2022-12-31T02:28:13.815Z,23.77
2022-12-31T02:30:43.334Z,17.95
2022-12-31T02:33:24.556Z,14.68
2022-12-31T02:35:58.112Z,20.73
2022-12-31T02:38:32.609Z,15.45
2022-12-31T02:41:00.615Z,24.30
2022-12-31T02:43:28.712Z,17.20
2022-12-31T02:46:13.580Z,17.40
2022-12-31T02:48:56.568Z,24.50
2022-12-31T02:51:42.739Z,17.30
2022-12-31T02:54:29.210Z,16.35
2022-12-31T02:57:39.834Z,15.52
2022-12-31T03:00:30.548Z,18.85
2022-12-31T03:05:30.873Z,13.38
2022-12-31T03:07:58.391Z,18.08
2022-12-31T03:10:26.057Z,22.05
2022-12-31T03:12:53.632Z,13.00
2022-12-31T03:15:31.603Z,22.45
2022-12-31T03:18:06.764Z,12.57
2022-12-31T03:20:58.139Z,14.52
2022-12-31T03:23:28.510Z,16.80
2022-12-31T03:25:57.052Z,13.02
2022-12-31T03:28:27.419Z,13.07
2022-12-31T03:31:01.475Z,15.43
2022-12-31T03:33:37.938Z,14.70
2022-12-31T03:36:08.071Z,19.02
2022-12-31T03:38:36.028Z,16.17
2022-12-31T03:41:03.774Z,12.05
2022-12-31T03:43:31.423Z,16.35
2022-12-31T03:46:01.256Z,13.38
2022-12-31T03:48:29.145Z,16.80
2022-12-31T03:50:56.724Z,17.52
2022-12-31T03:53:24.621Z,13.40
2022-12-31T03:55:53.249Z,13.95
2022-12-31T03:58:21.873Z,13.55
2022-12-31T04:00:49.823Z,11.52
2022-12-31T04:03:17.536Z,13.73
2022-12-31T04:05:45.099Z,12.35
2022-12-31T04:08:12.723Z,11.20
2022-12-31T04:10:40.306Z,12.23
2022-12-31T04:13:07.924Z,12.75
2022-12-31T04:15:35.438Z,17.67
2022-12-31T04:18:03.164Z,8.43
2022-12-31T04:20:30.707Z,17.80
2022-12-31T04:22:58.267Z,14.85
2022-12-31T04:25:25.827Z,10.75
2022-12-31T04:27:53.364Z,14.43
2022-12-31T04:30:20.876Z,15.52
2022-12-31T04:32:48.433Z,15.93
2022-12-31T04:35:16.056Z,10.95
2022-12-31T04:37:43.670Z,15.93
2022-12-31T04:40:11.523Z,10.55
2022-12-31T04:42:41.822Z,12.20
2022-12-31T04:45:10.747Z,16.30
2022-12-31T04:47:38.338Z,11.82
2022-12-31T04:50:06.382Z,10.95
2022-12-31T04:52:38.800Z,10.05
2022-12-31T04:55:10.889Z,18.60
2022-12-31T04:57:38.568Z,13.93
2022-12-31T05:00:06.777Z,14.30
2022-12-31T05:02:34.466Z,11.05
2022-12-31T05:05:02.186Z,8.65
2022-12-31T05:07:29.716Z,15.18
2022-12-31T05:09:57.285Z,10.77
2022-12-31T05:12:24.862Z,17.60
2022-12-31T05:14:52.425Z,10.98
2022-12-31T05:17:20.940Z,12.07
2022-12-31T05:19:48.494Z,16.65
2022-12-31T05:22:31.270Z,13.98
2022-12-31T05:25:00.305Z,12.32
2022-12-31T05:27:31.222Z,12.57
2022-12-31T05:29:59.855Z,13.73
2022-12-31T05:32:27.593Z,17.38
2022-12-31T05:34:55.224Z,16.42
2022-12-31T05:37:22.987Z,14.93
2022-12-31T05:39:50.600Z,12.85
2022-12-31T05:42:18.176Z,11.98
2022-12-31T05:44:45.800Z,12.07
2022-12-31T05:47:13.523Z,12.10
2022-12-31T05:49:41.094Z,12.35
2022-12-31T05:52:09.225Z,11.15
2022-12-31T05:54:36.878Z,11.23
2022-12-31T05:57:05.332Z,13.20
2022-12-31T05:59:33.005Z,9.38
2022-12-31T06:02:00.789Z,9.75
2022-12-31T06:04:28.413Z,8.93
2022-12-31T06:06:56.136Z,8.20
2022-12-31T06:09:24.244Z,11.00
2022-12-31T06:11:52.297Z,7.45
2022-12-31T06:14:20.017Z,7.97
2022-12-31T06:16:47.540Z,12.18
2022-12-31T06:19:15.280Z,12.48
2022-12-31T06:21:42.813Z,7.60
2022-12-31T06:24:10.477Z,9.43
2022-12-31T06:26:38.052Z,8.70
2022-12-31T06:29:05.621Z,8.90
2022-12-31T06:31:33.464Z,9.93
2022-12-31T06:34:01.089Z,7.63
2022-12-31T06:36:29.043Z,8.23
2022-12-31T06:38:56.800Z,6.97
2022-12-31T06:41:24.579Z,7.68
2022-12-31T06:43:52.274Z,6.72
2022-12-31T06:46:19.942Z,7.40
2022-12-31T06:48:47.517Z,9.82
2022-12-31T06:51:17.912Z,13.23
2022-12-31T06:53:47.661Z,10.20
2022-12-31T06:56:31.392Z,7.93
2022-12-31T06:59:02.241Z,6.90
2022-12-31T07:01:38.915Z,9.18
2022-12-31T07:04:44.129Z,5.40
2022-12-31T07:07:35.558Z,8.23
2022-12-31T07:10:19.119Z,8.30
2022-12-31T07:13:34.265Z,7.85
2022-12-31T07:16:38.640Z,8.00
2022-12-31T07:19:41.162Z,9.20
2022-12-31T07:22:14.965Z,9.05
2022-12-31T07:24:43.665Z,8.05
2022-12-31T07:27:23.110Z,6.53
2022-12-31T07:30:06.556Z,7.05
2022-12-31T07:32:57.355Z,9.68
2022-12-31T07:35:34.511Z,8.30
2022-12-31T07:38:24.914Z,11.93
2022-12-31T07:41:11.513Z,9.13
2022-12-31T07:43:48.186Z,8.18
2022-12-31T07:46:21.794Z,9.43
2022-12-31T07:48:49.789Z,8.32
2022-12-31T07:51:17.621Z,6.53
2022-12-31T07:53:45.238Z,6.13
2022-12-31T07:56:13.655Z,10.10
2022-12-31T07:58:56.430Z,5.82
2022-12-31T08:01:51.705Z,6.63
2022-12-31T08:04:41.274Z,9.02
2022-12-31T08:07:37.006Z,5.90
2022-12-31T08:10:17.274Z,6.78
2022-12-31T08:12:49.651Z,7.57
2022-12-31T08:15:19.250Z,7.93
2022-12-31T08:17:47.439Z,12.55
2022-12-31T08:20:17.488Z,9.60
2022-12-31T08:22:47.761Z,5.80
2022-12-31T08:25:21.225Z,7.45
2022-12-31T08:28:24.483Z,10.40
2022-12-31T08:31:08.672Z,7.88
2022-12-31T08:33:47.187Z,6.82
2022-12-31T08:36:49.948Z,8.25
2022-12-31T08:39:35.639Z,9.07
2022-12-31T08:42:13.055Z,10.35
2022-12-31T08:45:03.197Z,10.50
2022-12-31T08:48:00.232Z,9.68
2022-12-31T08:50:28.700Z,10.57
2022-12-31T08:52:56.682Z,10.77
2022-12-31T08:55:24.963Z,8.80
2022-12-31T08:58:18.312Z,9.68
2022-12-31T09:00:48.042Z,13.07
2022-12-31T09:03:45.704Z,12.70
2022-12-31T09:06:22.888Z,14.40
2022-12-31T09:09:04.807Z,17.55
2022-12-31T09:11:57.144Z,12.43
2022-12-31T09:15:05.370Z,14.63
2022-12-31T09:17:46.502Z,17.63
2022-12-31T09:20:32.512Z,20.67
2022-12-31T09:23:10.077Z,18.95
2022-12-31T09:25:46.986Z,17.08
2022-12-31T09:28:46.031Z,18.83
2022-12-31T09:31:24.424Z,18.15
2022-12-31T09:34:15.640Z,21.40
2022-12-31T09:36:49.691Z,21.50
2022-12-31T09:39:20.032Z,20.77
2022-12-31T09:41:47.512Z,22.15
2022-12-31T09:44:37.031Z,20.17
2022-12-31T09:47:23.149Z,19.67
2022-12-31T09:50:03.555Z,19.73
2022-12-31T09:52:55.536Z,20.38
2022-12-31T09:55:42.350Z,20.73
2022-12-31T09:58:40.086Z,21.25
2022-12-31T10:01:13.961Z,21.90
2022-12-31T10:04:03.503Z,21.05
2022-12-31T10:07:01.999Z,21.30
2022-12-31T10:10:01.672Z,27.63
2022-12-31T10:12:48.131Z,21.58
2022-12-31T10:15:31.201Z,21.27
2022-12-31T10:18:12.706Z,28.92
2022-12-31T10:20:52.281Z,22.77
2022-12-31T10:23:46.846Z,21.90
2022-12-31T10:26:44.611Z,18.45
2022-12-31T10:29:40.806Z,17.33
2022-12-31T10:32:31.657Z,13.45
2022-12-31T10:35:15.132Z,14.32
2022-12-31T10:37:46.892Z,11.98
2022-12-31T10:42:58.775Z,13.73
2022-12-31T10:45:38.416Z,14.55
2022-12-31T10:48:11.802Z,17.65
2022-12-31T10:50:48.744Z,14.25
2022-12-31T10:53:46.090Z,11.93
2022-12-31T10:56:16.758Z,10.65
2022-12-31T10:59:21.952Z,6.15
2022-12-31T11:02:40.702Z,8.50
2022-12-31T11:05:14.150Z,8.73
2022-12-31T11:08:01.327Z,5.72
2022-12-31T11:10:56.810Z,5.65
2022-12-31T11:13:39.034Z,6.82
2022-12-31T11:16:36.965Z,7.60
2022-12-31T11:19:28.076Z,7.70
2022-12-31T11:22:48.666Z,6.50
2022-12-31T11:25:20.843Z,5.00
2022-12-31T11:28:03.275Z,4.97
2022-12-31T11:31:01.918Z,4.40
2022-12-31T11:33:35.606Z,7.65
2022-12-31T11:36:40.910Z,8.27
2022-12-31T11:39:31.849Z,5.80
2022-12-31T11:42:18.392Z,5.30
2022-12-31T11:45:13.323Z,7.65
2022-12-31T11:48:28.447Z,9.43
2022-12-31T11:51:11.587Z,9.65
2022-12-31T11:54:07.018Z,18.60
2022-12-31T11:56:40.506Z,10.40
2022-12-31T11:59:18.916Z,8.98
2022-12-31T12:02:22.930Z,10.48
2022-12-31T12:04:51.033Z,10.32
2022-12-31T12:07:19.810Z,16.98
2022-12-31T12:09:48.168Z,17.75
2022-12-31T12:12:16.491Z,16.52
2022-12-31T12:14:49.287Z,20.55
2022-12-31T12:17:32.260Z,16.83
2022-12-31T12:20:03.210Z,18.50
2022-12-31T12:22:31.464Z,16.67
2022-12-31T12:25:04.963Z,20.20
2022-12-31T12:27:35.710Z,18.55
2022-12-31T12:30:19.806Z,19.07
2022-12-31T12:33:02.087Z,17.55
2022-12-31T12:35:32.956Z,20.08
2022-12-31T12:38:19.005Z,24.88
2022-12-31T12:40:58.617Z,20.35
2022-12-31T12:43:33.285Z,15.48
2022-12-31T12:46:06.170Z,24.60
2022-12-31T12:48:46.023Z,22.23
2022-12-31T12:51:19.465Z,30.73
2022-12-31T12:54:14.927Z,18.45
2022-12-31T12:57:11.193Z,18.63
2022-12-31T12:59:47.808Z,28.70
2022-12-31T13:02:34.353Z,23.23
2022-12-31T13:05:28.308Z,28.67
2022-12-31T13:08:01.706Z,18.25
2022-12-31T13:10:47.836Z,27.20
2022-12-31T13:14:03.092Z,21.85
2022-12-31T13:17:06.138Z,17.40
2022-12-31T13:19:50.683Z,25.90
2022-12-31T13:22:38.483Z,28.17
2022-12-31T13:25:25.830Z,26.77
2022-12-31T13:27:58.488Z,26.98
2022-12-31T13:30:37.720Z,23.73
2022-12-31T13:33:34.536Z,26.48
2022-12-31T13:36:09.356Z,18.92
2022-12-31T13:38:39.059Z,21.42
2022-12-31T13:41:12.674Z,19.55
2022-12-31T13:44:08.401Z,17.35
2022-12-31T13:46:41.577Z,26.00
2022-12-31T13:49:36.257Z,17.70
2022-12-31T13:52:38.035Z,23.88
2022-12-31T13:55:11.459Z,22.10
2022-12-31T13:57:57.746Z,19.23
2022-12-31T14:00:31.529Z,20.10
2022-12-31T14:03:35.820Z,20.38
2022-12-31T14:06:22.572Z,30.67
2022-12-31T14:08:53.250Z,19.85
2022-12-31T14:12:11.490Z,20.67
2022-12-31T14:15:02.126Z,18.48
2022-12-31T14:17:45.129Z,15.85
2022-12-31T14:20:18.368Z,23.42
2022-12-31T14:23:13.191Z,16.50
2022-12-31T14:25:46.491Z,23.17
2022-12-31T14:28:34.857Z,17.75
2022-12-31T14:31:16.689Z,17.83
2022-12-31T14:36:39.157Z,20.30
2022-12-31T14:39:25.572Z,15.45
2022-12-31T14:42:01.084Z,20.85
2022-12-31T14:44:42.264Z,18.90
2022-12-31T14:47:47.695Z,24.88
2022-12-31T14:50:25.125Z,23.50
2022-12-31T14:53:16.017Z,30.85
2022-12-31T14:55:43.663Z,21.98
2022-12-31T14:58:36.238Z,18.13
2022-12-31T15:01:08.865Z,16.77
2022-12-31T15:03:45.425Z,28.15
2022-12-31T15:06:32.151Z,25.52
2022-12-31T15:09:14.829Z,24.35
2022-12-31T15:12:07.293Z,26.58
2022-12-31T15:15:16.934Z,29.02
2022-12-31T15:17:56.397Z,30.42
2022-12-31T15:20:40.830Z,23.25
2022-12-31T15:23:22.082Z,26.45
2022-12-31T15:25:59.236Z,24.67
2022-12-31T15:28:34.384Z,18.17
2022-12-31T15:31:20.068Z,17.33
2022-12-31T15:34:01.545Z,19.02
2022-12-31T15:36:35.729Z,17.90
2022-12-31T15:39:24.248Z,17.80
2022-12-31T15:42:36.147Z,25.58
2022-12-31T15:44:55.009Z,23.17
2022-12-31T15:47:29.408Z,15.10
2022-12-31T15:50:12.347Z,17.50
2022-12-31T15:52:43.720Z,19.17
2022-12-31T15:55:23.447Z,20.58
2022-12-31T15:57:51.961Z,17.85
2022-12-31T16:00:23.407Z,18.35
2022-12-31T16:02:54.408Z,14.38
2022-12-31T16:05:24.542Z,18.65
2022-12-31T16:07:56.605Z,20.80
2022-12-31T16:10:30.250Z,15.32
2022-12-31T16:12:58.987Z,20.13
2022-12-31T16:15:30.509Z,22.98
2022-12-31T16:20:32.479Z,16.00
2022-12-31T16:23:03.217Z,17.98
2022-12-31T16:25:33.668Z,20.05
2022-12-31T16:28:03.694Z,20.02
2022-12-31T16:30:33.325Z,19.73
2022-12-31T16:33:05.100Z,16.20
2022-12-31T16:35:36.345Z,17.48
2022-12-31T16:38:17.206Z,21.23
2022-12-31T16:41:04.792Z,18.20
2022-12-31T16:43:40.948Z,22.65
2022-12-31T16:46:15.141Z,17.45
2022-12-31T16:48:57.465Z,16.70
2022-12-31T16:51:31.144Z,22.20
2022-12-31T16:54:01.549Z,24.17
2022-12-31T16:56:36.400Z,14.30
2022-12-31T16:59:12.641Z,15.45
2022-12-31T17:01:41.701Z,17.75
2022-12-31T17:04:14.741Z,22.35
2022-12-31T17:06:43.213Z,18.65
2022-12-31T17:09:20.673Z,17.65
2022-12-31T17:11:56.863Z,19.95
2022-12-31T17:14:27.670Z,21.00
2022-12-31T17:17:03.498Z,15.70
2022-12-31T17:19:43.401Z,17.23
2022-12-31T17:22:44.094Z,19.80
2022-12-31T17:25:20.923Z,20.10
2022-12-31T17:28:20.291Z,21.67
2022-12-31T17:30:48.142Z,18.70
2022-12-31T17:33:21.765Z,20.70
2022-12-31T17:35:58.559Z,16.80
2022-12-31T17:38:32.974Z,18.63
2022-12-31T17:41:13.816Z,26.23
2022-12-31T17:43:42.634Z,17.20
2022-12-31T17:46:13.341Z,19.63
2022-12-31T17:48:41.863Z,29.23
2022-12-31T17:51:09.687Z,19.83
2022-12-31T17:53:37.291Z,24.73
2022-12-31T17:56:07.594Z,22.25
2022-12-31T17:58:38.430Z,20.15
2022-12-31T18:01:07.929Z,22.57
2022-12-31T18:03:36.354Z,24.08
2022-12-31T18:06:05.440Z,20.23
2022-12-31T18:08:32.977Z,24.30
2022-12-31T18:11:00.591Z,22.02
2022-12-31T18:13:28.186Z,23.30
2022-12-31T18:15:55.814Z,23.60
2022-12-31T18:18:32.703Z,26.13
2022-12-31T18:21:03.857Z,20.98
2022-12-31T18:23:37.731Z,19.42
2022-12-31T18:26:05.335Z,23.98
2022-12-31T18:28:32.903Z,19.08
2022-12-31T18:31:00.726Z,19.48
2022-12-31T18:33:28.643Z,24.63
2022-12-31T18:36:11.661Z,23.67
2022-12-31T18:38:39.661Z,21.25
2022-12-31T18:41:12.265Z,14.82
2022-12-31T18:43:39.870Z,11.07
2022-12-31T18:46:14.204Z,11.25
2022-12-31T18:48:42.009Z,14.88
2022-12-31T18:51:18.163Z,7.78
2022-12-31T18:53:45.913Z,8.18
2022-12-31T18:56:19.845Z,9.48
2022-12-31T18:58:47.907Z,10.60
2022-12-31T19:01:26.227Z,15.32
2022-12-31T19:04:11.374Z,10.00
2022-12-31T19:06:39.058Z,11.25
2022-12-31T19:09:23.688Z,13.93
2022-12-31T19:11:54.190Z,10.30
2022-12-31T19:14:24.280Z,12.02
2022-12-31T19:16:53.589Z,11.68
2022-12-31T19:19:21.419Z,7.63
2022-12-31T19:21:49.022Z,8.35
2022-12-31T19:24:23.325Z,8.70
2022-12-31T19:26:51.150Z,6.50
2022-12-31T19:29:19.868Z,9.70
2022-12-31T19:31:48.356Z,8.50
2022-12-31T19:34:16.054Z,7.93
2022-12-31T19:36:44.446Z,7.57
2022-12-31T19:39:18.050Z,5.85
2022-12-31T19:41:47.527Z,8.48
2022-12-31T19:44:18.363Z,7.22
2022-12-31T19:46:46.817Z,7.65
2022-12-31T19:49:14.821Z,8.82
2022-12-31T19:51:42.810Z,11.68
2022-12-31T19:54:13.157Z,9.15
2022-12-31T19:56:41.039Z,10.48
2022-12-31T19:59:10.688Z,8.85
2022-12-31T20:01:39.013Z,9.05
2022-12-31T20:04:06.940Z,8.77
2022-12-31T20:06:34.759Z,9.07
2022-12-31T20:09:03.421Z,7.63
2022-12-31T20:11:31.288Z,5.95
2022-12-31T20:13:59.093Z,8.55
2022-12-31T20:16:27.058Z,7.88
2022-12-31T20:18:54.836Z,9.30
2022-12-31T20:21:25.500Z,4.03
2022-12-31T20:23:54.405Z,8.00
2022-12-31T20:26:24.063Z,4.43
2022-12-31T20:28:52.279Z,5.80
2022-12-31T20:31:23.915Z,3.28
2022-12-31T20:33:54.196Z,3.95
2022-12-31T20:36:23.047Z,3.95
2022-12-31T20:38:50.920Z,4.18
2022-12-31T20:41:23.219Z,3.60
2022-12-31T20:43:51.583Z,4.68
2022-12-31T20:46:25.123Z,3.38
2022-12-31T20:48:55.387Z,3.63
2022-12-31T20:51:23.650Z,1.98
2022-12-31T20:53:57.510Z,2.90
2022-12-31T20:56:29.744Z,2.78
2022-12-31T20:58:57.693Z,3.17
2022-12-31T21:01:32.212Z,4.15
2022-12-31T21:04:13.972Z,2.88
2022-12-31T21:06:41.656Z,2.85
2022-12-31T21:09:09.376Z,4.90
2022-12-31T21:11:55.722Z,1.85
2022-12-31T21:14:23.334Z,1.83
2022-12-31T21:16:50.903Z,3.97
2022-12-31T21:19:18.540Z,2.70
2022-12-31T21:21:48.134Z,3.10
2022-12-31T21:24:21.780Z,2.50
2022-12-31T21:26:52.033Z,1.40
2022-12-31T21:29:19.567Z,1.25
2022-12-31T21:31:47.146Z,3.08
2022-12-31T21:34:14.696Z,2.05
2022-12-31T21:36:42.244Z,2.20
2022-12-31T21:39:09.831Z,2.55
2022-12-31T21:41:52.644Z,2.15
2022-12-31T21:44:22.427Z,2.75
2022-12-31T21:47:38.533Z,8.45
2022-12-31T21:50:08.401Z,1.50
2022-12-31T21:52:36.203Z,1.67
2022-12-31T21:55:23.855Z,5.25
2022-12-31T21:58:24.647Z,1.33
2022-12-31T22:00:58.617Z,3.05
2022-12-31T22:03:29.511Z,3.22
2022-12-31T22:06:12.224Z,3.88
2022-12-31T22:08:44.567Z,4.20
2022-12-31T22:11:13.133Z,9.43
2022-12-31T22:13:41.136Z,4.25
2022-12-31T22:16:09.077Z,2.70
2022-12-31T22:18:39.124Z,2.83
2022-12-31T22:21:21.313Z,5.75
2022-12-31T22:23:51.753Z,10.48
2022-12-31T22:26:23.467Z,5.13
2022-12-31T22:31:24.573Z,5.00
2022-12-31T22:33:53.198Z,5.90
2022-12-31T22:36:22.474Z,3.17
2022-12-31T22:38:51.268Z,2.63
2022-12-31T22:41:20.894Z,1.92
2022-12-31T22:43:50.587Z,0.85
2022-12-31T22:46:19.978Z,1.75
2022-12-31T22:48:48.087Z,1.58
2022-12-31T22:51:16.694Z,1.63
2022-12-31T22:53:44.739Z,1.95
2022-12-31T22:56:15.396Z,2.10
2022-12-31T22:58:43.826Z,4.27
2022-12-31T23:01:23.539Z,1.83
2022-12-31T23:03:53.324Z,2.55
2022-12-31T23:06:22.532Z,1.63
2022-12-31T23:09:11.154Z,2.13
2022-12-31T23:11:39.703Z,2.10
2022-12-31T23:14:29.211Z,2.90
2022-12-31T23:17:29.835Z,2.72
2022-12-31T23:20:19.378Z,2.80
2022-12-31T23:23:07.779Z,4.50
2022-12-31T23:25:38.283Z,4.55
2022-12-31T23:28:07.870Z,6.28
2022-12-31T23:30:41.587Z,1.48
2022-12-31T23:33:16.853Z,2.72
2022-12-31T23:35:45.297Z,4.70
2022-12-31T23:38:13.405Z,2.45
2022-12-31T23:40:41.035Z,3.28
2022-12-31T23:43:20.529Z,4.35
2022-12-31T23:45:52.166Z,4.40
2022-12-31T23:48:20.032Z,4.50
2022-12-31T23:50:53.773Z,5.40
2022-12-31T23:53:24.822Z,5.40
2022-12-31T23:55:53.234Z,5.30
2022-12-31T23:58:21.215Z,6.53
